CheckWX is a tool to help pilots better visualize weather data.  It is not intended as a substitute for an official pre-flight weather briefing.

16:28:40 UTC

KORE METAR
Orange Municipal Airport
Orange, Massachusetts, USA
Current

37 mins ago

KORE 161552Z AUTO 02011KT 10SM CLR 19/08 A3008 RMK AO2 SLP185 T01940078
Observed
Sep-16 @ 15:52 UTC
Wind
  • 020° at 11 KTS
Visibility
10 SM
Flight Rules
VFR
Cloud Levels
  • Clear skies
Temperature
19°C / 66°F
Dewpoint
C / 46°F
Humidity
49%
Altimeter
30.08" Hg
Pressure
1018.62 hPa
Previous

2 hours ago

KORE 161452Z AUTO 34007KT 10SM CLR 18/07 A3010 RMK AO2 SLP195 T01780072 58002
Observed
Sep-16 @ 14:52 UTC
Wind
  • 340° at 7 KTS
Visibility
10 SM
Flight Rules
VFR
Cloud Levels
  • Clear skies
Temperature
18°C / 64°F
Dewpoint
C / 45°F
Humidity
49%
Altimeter
30.1" Hg
Pressure
1019.32 hPa
Previous

3 hours ago

KORE 161352Z AUTO 34014KT 10SM CLR 17/08 A3012 RMK AO2 SLP199 T01670078
Observed
Sep-16 @ 13:52 UTC
Wind
  • 340° at 14 KTS
Visibility
10 SM
Flight Rules
VFR
Cloud Levels
  • Clear skies
Temperature
17°C / 63°F
Dewpoint
C / 46°F
Humidity
56%
Altimeter
30.12" Hg
Pressure
1020.02 hPa